createdAt,value
2023-05-17T00:00:05.000Z,1026.57
2023-05-17T00:01:05.000Z,1026.56
2023-05-17T00:02:05.000Z,1026.6
2023-05-17T00:03:05.000Z,1026.54
2023-05-17T00:04:06.000Z,1026.54
2023-05-17T00:05:06.000Z,1026.52
2023-05-17T00:06:06.000Z,1026.55
2023-05-17T00:07:06.000Z,1026.53
2023-05-17T00:08:07.000Z,1026.51
2023-05-17T00:09:07.000Z,1026.51
2023-05-17T00:10:07.000Z,1026.55
2023-05-17T00:11:07.000Z,1026.56
2023-05-17T00:12:08.000Z,1026.55
2023-05-17T00:13:08.000Z,1026.59
2023-05-17T00:14:08.000Z,1026.59
2023-05-17T00:15:08.000Z,1026.58
2023-05-17T00:16:09.000Z,1026.57
2023-05-17T00:17:09.000Z,1026.57
2023-05-17T00:18:09.000Z,1026.54
2023-05-17T00:19:10.000Z,1026.59
2023-05-17T00:20:10.000Z,1026.56
2023-05-17T00:21:10.000Z,1026.6
2023-05-17T00:22:11.000Z,1026.57
2023-05-17T00:23:11.000Z,1026.58
2023-05-17T00:24:11.000Z,1026.61
2023-05-17T00:25:12.000Z,1026.61
2023-05-17T00:26:12.000Z,1026.63
2023-05-17T00:27:13.000Z,1026.65
2023-05-17T00:28:13.000Z,1026.66
2023-05-17T00:29:13.000Z,1026.65
2023-05-17T00:30:14.000Z,1026.65
2023-05-17T00:31:14.000Z,1026.65
2023-05-17T00:32:14.000Z,1026.64
2023-05-17T00:33:15.000Z,1026.64
2023-05-17T00:34:15.000Z,1026.63
2023-05-17T00:35:15.000Z,1026.67
2023-05-17T00:36:15.000Z,1026.68
2023-05-17T00:37:16.000Z,1026.63
2023-05-17T00:38:16.000Z,1026.68
2023-05-17T00:39:16.000Z,1026.63
2023-05-17T00:40:16.000Z,1026.62
2023-05-17T00:41:17.000Z,1026.69
2023-05-17T00:42:17.000Z,1026.67
2023-05-17T00:43:17.000Z,1026.67
2023-05-17T00:44:17.000Z,1026.66
2023-05-17T00:45:18.000Z,1026.68
2023-05-17T00:46:18.000Z,1026.71
2023-05-17T00:47:18.000Z,1026.7
2023-05-17T00:48:18.000Z,1026.71
2023-05-17T00:49:19.000Z,1026.69
2023-05-17T00:50:19.000Z,1026.7
2023-05-17T00:51:19.000Z,1026.71
2023-05-17T00:52:19.000Z,1026.74
2023-05-17T00:53:20.000Z,1026.7
2023-05-17T00:54:20.000Z,1026.72
2023-05-17T00:55:20.000Z,1026.71
2023-05-17T00:56:20.000Z,1026.69
2023-05-17T00:57:21.000Z,1026.71
2023-05-17T00:58:21.000Z,1026.71
2023-05-17T00:59:21.000Z,1026.68
2023-05-17T01:00:21.000Z,1026.68
2023-05-17T01:01:22.000Z,1026.69
2023-05-17T01:02:22.000Z,1026.68
2023-05-17T01:03:22.000Z,1026.65
2023-05-17T01:04:23.000Z,1026.69
2023-05-17T01:05:23.000Z,1026.71
2023-05-17T01:06:23.000Z,1026.72
2023-05-17T01:07:23.000Z,1026.73
2023-05-17T01:08:24.000Z,1026.68
2023-05-17T01:09:24.000Z,1026.76
2023-05-17T01:10:24.000Z,1026.78
2023-05-17T01:11:24.000Z,1026.75
2023-05-17T01:12:25.000Z,1026.72
2023-05-17T01:13:25.000Z,1026.76
2023-05-17T01:14:25.000Z,1026.74
2023-05-17T01:15:25.000Z,1026.78
2023-05-17T01:16:26.000Z,1026.75
2023-05-17T01:17:26.000Z,1026.78
2023-05-17T01:18:26.000Z,1026.77
2023-05-17T01:19:26.000Z,1026.76
2023-05-17T01:20:27.000Z,1026.78
2023-05-17T01:21:27.000Z,1026.79
2023-05-17T01:22:27.000Z,1026.77
2023-05-17T01:23:27.000Z,1026.82
2023-05-17T01:24:28.000Z,1026.84
2023-05-17T01:25:28.000Z,1026.86
2023-05-17T01:26:28.000Z,1026.85
2023-05-17T01:27:29.000Z,1026.83
2023-05-17T01:28:29.000Z,1026.81
2023-05-17T01:29:29.000Z,1026.82
2023-05-17T01:30:29.000Z,1026.85
2023-05-17T01:31:30.000Z,1026.85
2023-05-17T01:32:30.000Z,1026.84
2023-05-17T01:33:30.000Z,1026.88
2023-05-17T01:34:31.000Z,1026.85
2023-05-17T01:35:31.000Z,1026.9
2023-05-17T01:36:31.000Z,1026.89
2023-05-17T01:37:32.000Z,1026.89
2023-05-17T01:38:32.000Z,1026.91
2023-05-17T01:39:32.000Z,1026.9
2023-05-17T01:40:32.000Z,1026.95
2023-05-17T01:41:33.000Z,1026.91
2023-05-17T01:42:33.000Z,1026.97
2023-05-17T01:43:33.000Z,1026.93
2023-05-17T01:44:33.000Z,1026.96
2023-05-17T01:45:34.000Z,1026.98
2023-05-17T01:46:34.000Z,1026.95
2023-05-17T01:47:34.000Z,1026.96
2023-05-17T01:48:35.000Z,1026.95
2023-05-17T01:49:35.000Z,1026.94
2023-05-17T01:50:35.000Z,1026.96
2023-05-17T01:51:35.000Z,1026.98
2023-05-17T01:52:35.000Z,1026.96
2023-05-17T01:53:36.000Z,1026.99
2023-05-17T01:54:36.000Z,1026.98
2023-05-17T01:55:36.000Z,1026.99
2023-05-17T01:56:37.000Z,1027.01
2023-05-17T01:57:37.000Z,1026.94
2023-05-17T01:58:37.000Z,1026.97
2023-05-17T01:59:37.000Z,1027.0
2023-05-17T02:00:38.000Z,1027.02
2023-05-17T02:01:38.000Z,1027.03
2023-05-17T02:02:38.000Z,1027.04
2023-05-17T02:03:38.000Z,1027.02
2023-05-17T02:04:38.000Z,1027.06
2023-05-17T02:05:39.000Z,1027.04
2023-05-17T02:06:39.000Z,1027.01
2023-05-17T02:07:39.000Z,1027.0
2023-05-17T02:08:39.000Z,1027.02
2023-05-17T02:09:40.000Z,1026.96
2023-05-17T02:10:40.000Z,1026.97
2023-05-17T02:11:40.000Z,1026.98
2023-05-17T02:12:40.000Z,1027.01
2023-05-17T02:13:41.000Z,1026.98
2023-05-17T02:14:41.000Z,1026.97
2023-05-17T02:15:41.000Z,1026.99
2023-05-17T02:16:42.000Z,1027.01
2023-05-17T02:17:42.000Z,1026.99
2023-05-17T02:18:42.000Z,1026.96
2023-05-17T02:19:42.000Z,1027.03
2023-05-17T02:20:43.000Z,1027.08
2023-05-17T02:21:43.000Z,1027.06
2023-05-17T02:22:43.000Z,1027.1
2023-05-17T02:23:44.000Z,1027.11
2023-05-17T02:24:44.000Z,1027.1
2023-05-17T02:25:44.000Z,1027.05
2023-05-17T02:26:44.000Z,1027.04
2023-05-17T02:27:45.000Z,1027.01
2023-05-17T02:28:45.000Z,1027.02
2023-05-17T02:29:45.000Z,1027.09
2023-05-17T02:30:45.000Z,1027.02
2023-05-17T02:31:46.000Z,1027.05
2023-05-17T02:32:46.000Z,1027.05
2023-05-17T02:33:46.000Z,1027.05
2023-05-17T02:34:47.000Z,1027.1
2023-05-17T02:35:47.000Z,1027.03
2023-05-17T02:36:47.000Z,1027.08
2023-05-17T02:37:47.000Z,1027.09
2023-05-17T02:38:48.000Z,1027.07
2023-05-17T02:39:48.000Z,1027.06
2023-05-17T02:40:48.000Z,1027.12
2023-05-17T02:41:48.000Z,1027.07
2023-05-17T02:42:49.000Z,1027.07
2023-05-17T02:43:49.000Z,1027.06
2023-05-17T02:44:49.000Z,1027.12
2023-05-17T02:45:49.000Z,1027.1
2023-05-17T02:46:50.000Z,1027.11
2023-05-17T02:47:50.000Z,1027.13
2023-05-17T02:48:50.000Z,1027.13
2023-05-17T02:49:50.000Z,1027.12
2023-05-17T02:50:51.000Z,1027.12
2023-05-17T02:51:51.000Z,1027.15
2023-05-17T02:52:51.000Z,1027.16
2023-05-17T02:53:52.000Z,1027.13
2023-05-17T02:54:52.000Z,1027.1
2023-05-17T02:55:52.000Z,1027.18
2023-05-17T02:56:52.000Z,1027.16
2023-05-17T02:57:53.000Z,1027.15
2023-05-17T02:58:53.000Z,1027.18
2023-05-17T02:59:53.000Z,1027.18
2023-05-17T03:00:53.000Z,1027.14
2023-05-17T03:01:54.000Z,1027.15
2023-05-17T03:02:54.000Z,1027.15
2023-05-17T03:03:54.000Z,1027.18
2023-05-17T03:04:54.000Z,1027.16
2023-05-17T03:05:55.000Z,1027.19
2023-05-17T03:06:55.000Z,1027.18
2023-05-17T03:07:55.000Z,1027.17
2023-05-17T03:08:56.000Z,1027.18
2023-05-17T03:09:56.000Z,1027.21
2023-05-17T03:10:56.000Z,1027.16
2023-05-17T03:11:56.000Z,1027.17
2023-05-17T03:12:57.000Z,1027.22
2023-05-17T03:13:57.000Z,1027.19
2023-05-17T03:14:57.000Z,1027.16
2023-05-17T03:15:58.000Z,1027.16
2023-05-17T03:16:58.000Z,1027.25
2023-05-17T03:17:58.000Z,1027.27
2023-05-17T03:18:58.000Z,1027.28
2023-05-17T03:19:58.000Z,1027.26
2023-05-17T03:20:59.000Z,1027.29
2023-05-17T03:21:59.000Z,1027.36
2023-05-17T03:22:59.000Z,1027.41
2023-05-17T03:24:00.000Z,1027.39
2023-05-17T03:25:00.000Z,1027.43
2023-05-17T03:26:00.000Z,1027.47
2023-05-17T03:27:00.000Z,1027.47
2023-05-17T03:28:01.000Z,1027.52
2023-05-17T03:29:01.000Z,1027.53
2023-05-17T03:30:01.000Z,1027.61
2023-05-17T03:31:01.000Z,1027.57
2023-05-17T03:32:02.000Z,1027.61
2023-05-17T03:33:02.000Z,1027.61
2023-05-17T03:34:02.000Z,1027.59
2023-05-17T03:35:03.000Z,1027.61
2023-05-17T03:36:03.000Z,1027.67
2023-05-17T03:37:03.000Z,1027.69
2023-05-17T03:38:04.000Z,1027.72
2023-05-17T03:39:04.000Z,1027.72
2023-05-17T03:40:04.000Z,1027.73
2023-05-17T03:41:04.000Z,1027.73
2023-05-17T03:42:05.000Z,1027.7
2023-05-17T03:43:05.000Z,1027.74
2023-05-17T03:44:05.000Z,1027.75
2023-05-17T03:45:06.000Z,1027.78
2023-05-17T03:46:06.000Z,1027.74
2023-05-17T03:47:06.000Z,1027.77
2023-05-17T03:48:06.000Z,1027.74
2023-05-17T03:49:07.000Z,1027.74
2023-05-17T03:50:07.000Z,1027.76
2023-05-17T03:51:07.000Z,1027.81
2023-05-17T03:52:07.000Z,1027.76
2023-05-17T03:53:08.000Z,1027.79
2023-05-17T03:54:08.000Z,1027.74
2023-05-17T03:55:08.000Z,1027.78
2023-05-17T03:56:08.000Z,1027.78
2023-05-17T03:57:09.000Z,1027.85
2023-05-17T03:58:09.000Z,1027.83
2023-05-17T03:59:09.000Z,1027.83
2023-05-17T04:00:10.000Z,1027.82
2023-05-17T04:01:10.000Z,1027.88
2023-05-17T04:02:10.000Z,1027.84
2023-05-17T04:03:10.000Z,1027.89
2023-05-17T04:04:11.000Z,1027.85
2023-05-17T04:05:11.000Z,1027.92
2023-05-17T04:06:11.000Z,1027.92
2023-05-17T04:07:11.000Z,1027.92
2023-05-17T04:08:12.000Z,1027.96
2023-05-17T04:09:12.000Z,1027.89
2023-05-17T04:10:12.000Z,1027.92
2023-05-17T04:11:12.000Z,1027.94
2023-05-17T04:12:13.000Z,1027.95
2023-05-17T04:13:13.000Z,1027.94
2023-05-17T04:14:13.000Z,1027.95
2023-05-17T04:15:13.000Z,1027.95
2023-05-17T04:16:14.000Z,1028.01
2023-05-17T04:17:14.000Z,1027.97
2023-05-17T04:18:15.000Z,1028.0
2023-05-17T04:19:15.000Z,1028.02
2023-05-17T04:20:15.000Z,1028.02
2023-05-17T04:21:16.000Z,1028.01
2023-05-17T04:22:16.000Z,1028.06
2023-05-17T04:23:16.000Z,1028.11
2023-05-17T04:24:16.000Z,1028.08
2023-05-17T04:25:17.000Z,1028.1
2023-05-17T04:26:17.000Z,1028.12
2023-05-17T04:27:17.000Z,1028.07
2023-05-17T04:28:18.000Z,1028.1
2023-05-17T04:29:18.000Z,1028.09
2023-05-17T04:30:18.000Z,1028.11
2023-05-17T04:31:18.000Z,1028.08
2023-05-17T04:32:19.000Z,1028.03
2023-05-17T04:33:19.000Z,1027.99
2023-05-17T04:34:19.000Z,1028.05
2023-05-17T04:35:19.000Z,1028.03
2023-05-17T04:36:20.000Z,1028.0
2023-05-17T04:37:20.000Z,1027.95
2023-05-17T04:38:20.000Z,1027.97
2023-05-17T04:39:21.000Z,1027.89
2023-05-17T04:40:21.000Z,1027.99
2023-05-17T04:41:21.000Z,1027.97
2023-05-17T04:42:21.000Z,1027.96
2023-05-17T04:43:22.000Z,1028.01
2023-05-17T04:44:22.000Z,1027.97
2023-05-17T04:45:22.000Z,1027.97
2023-05-17T04:46:22.000Z,1027.98
2023-05-17T04:47:23.000Z,1028.01
2023-05-17T04:48:23.000Z,1027.96
2023-05-17T04:49:23.000Z,1027.94
2023-05-17T04:50:23.000Z,1028.01
2023-05-17T04:51:24.000Z,1028.06
2023-05-17T04:52:24.000Z,1028.09
2023-05-17T04:53:24.000Z,1028.05
2023-05-17T04:54:24.000Z,1028.09
2023-05-17T04:55:25.000Z,1028.14
2023-05-17T04:56:25.000Z,1028.15
2023-05-17T04:57:25.000Z,1028.16
2023-05-17T04:58:25.000Z,1028.15
2023-05-17T04:59:26.000Z,1028.18
2023-05-17T05:00:26.000Z,1028.17
2023-05-17T05:01:26.000Z,1028.2
2023-05-17T05:02:27.000Z,1028.21
2023-05-17T05:03:27.000Z,1028.23
2023-05-17T05:04:27.000Z,1028.19
2023-05-17T05:05:27.000Z,1028.22
2023-05-17T05:06:28.000Z,1028.22
2023-05-17T05:07:28.000Z,1028.25
2023-05-17T05:08:28.000Z,1028.27
2023-05-17T05:09:29.000Z,1028.27
2023-05-17T05:10:29.000Z,1028.22
2023-05-17T05:11:29.000Z,1028.24
2023-05-17T05:12:29.000Z,1028.18
2023-05-17T05:13:30.000Z,1028.28
2023-05-17T05:14:30.000Z,1028.24
2023-05-17T05:15:30.000Z,1028.32
2023-05-17T05:16:30.000Z,1028.35
2023-05-17T05:17:31.000Z,1028.35
2023-05-17T05:18:31.000Z,1028.43
2023-05-17T05:19:31.000Z,1028.44
2023-05-17T05:20:31.000Z,1028.44
2023-05-17T05:21:32.000Z,1028.45
2023-05-17T05:22:32.000Z,1028.46
2023-05-17T05:23:32.000Z,1028.49
2023-05-17T05:24:32.000Z,1028.47
2023-05-17T05:25:33.000Z,1028.43
2023-05-17T05:26:33.000Z,1028.46
2023-05-17T05:27:33.000Z,1028.45
2023-05-17T05:28:33.000Z,1028.49
2023-05-17T05:29:34.000Z,1028.48
2023-05-17T05:30:34.000Z,1028.52
2023-05-17T05:31:34.000Z,1028.5
2023-05-17T05:32:34.000Z,1028.54
2023-05-17T05:33:35.000Z,1028.58
2023-05-17T05:34:35.000Z,1028.55
2023-05-17T05:35:35.000Z,1028.55
2023-05-17T05:36:35.000Z,1028.56
2023-05-17T05:37:36.000Z,1028.6
2023-05-17T05:38:36.000Z,1028.6
2023-05-17T05:39:36.000Z,1028.6
2023-05-17T05:40:36.000Z,1028.58
2023-05-17T05:41:37.000Z,1028.71
2023-05-17T05:42:37.000Z,1028.65
2023-05-17T05:43:37.000Z,1028.68
2023-05-17T05:44:38.000Z,1028.68
2023-05-17T05:45:38.000Z,1028.71
2023-05-17T05:46:38.000Z,1028.72
2023-05-17T05:47:38.000Z,1028.78
2023-05-17T05:48:39.000Z,1028.79
2023-05-17T05:49:39.000Z,1028.74
2023-05-17T05:50:39.000Z,1028.76
2023-05-17T05:51:40.000Z,1028.83
2023-05-17T05:52:40.000Z,1028.79
2023-05-17T05:53:40.000Z,1028.75
2023-05-17T05:54:40.000Z,1028.77
2023-05-17T05:55:41.000Z,1028.76
2023-05-17T05:56:46.000Z,1028.79
2023-05-17T05:57:46.000Z,1028.83
2023-05-17T05:58:46.000Z,1028.88
2023-05-17T05:59:47.000Z,1028.87
2023-05-17T06:00:47.000Z,1028.91
2023-05-17T06:01:47.000Z,1028.89
2023-05-17T06:02:48.000Z,1028.84
2023-05-17T06:03:48.000Z,1028.82
2023-05-17T06:04:48.000Z,1028.84
2023-05-17T06:05:48.000Z,1028.83
2023-05-17T06:06:49.000Z,1028.82
2023-05-17T06:07:49.000Z,1028.84
2023-05-17T06:08:49.000Z,1028.82
2023-05-17T06:09:49.000Z,1028.78
2023-05-17T06:10:50.000Z,1028.82
2023-05-17T06:11:50.000Z,1028.78
2023-05-17T06:12:50.000Z,1028.71
2023-05-17T06:13:50.000Z,1028.79
2023-05-17T06:14:51.000Z,1028.81
2023-05-17T06:15:51.000Z,1028.86
2023-05-17T06:16:51.000Z,1028.81
2023-05-17T06:17:51.000Z,1028.8
2023-05-17T06:18:52.000Z,1028.82
2023-05-17T06:19:52.000Z,1028.8
2023-05-17T06:20:52.000Z,1028.83
2023-05-17T06:21:53.000Z,1028.8
2023-05-17T06:22:53.000Z,1028.84
2023-05-17T06:23:53.000Z,1028.84
2023-05-17T06:24:53.000Z,1028.82
2023-05-17T06:25:54.000Z,1028.84
2023-05-17T06:26:54.000Z,1028.83
2023-05-17T06:27:54.000Z,1028.85
2023-05-17T06:28:54.000Z,1028.91
2023-05-17T06:29:55.000Z,1028.92
2023-05-17T06:30:55.000Z,1028.94
2023-05-17T06:31:55.000Z,1028.88
2023-05-17T06:32:55.000Z,1028.89
2023-05-17T06:33:56.000Z,1028.89
2023-05-17T06:34:56.000Z,1028.98
2023-05-17T06:35:56.000Z,1029.0
2023-05-17T06:36:57.000Z,1029.03
2023-05-17T06:37:57.000Z,1029.03
2023-05-17T06:38:57.000Z,1029.08
2023-05-17T06:39:57.000Z,1029.09
2023-05-17T06:40:58.000Z,1029.07
2023-05-17T06:41:58.000Z,1029.03
2023-05-17T06:42:58.000Z,1029.01
2023-05-17T06:43:59.000Z,1029.05
2023-05-17T06:44:59.000Z,1029.05
2023-05-17T06:45:59.000Z,1029.03
2023-05-17T06:46:59.000Z,1029.0
2023-05-17T06:48:00.000Z,1029.05
2023-05-17T06:49:00.000Z,1029.07
2023-05-17T06:50:00.000Z,1029.07
2023-05-17T06:51:00.000Z,1029.09
2023-05-17T06:52:01.000Z,1029.11
2023-05-17T06:53:01.000Z,1029.07
2023-05-17T06:54:01.000Z,1029.1
2023-05-17T06:55:01.000Z,1029.15
2023-05-17T06:56:02.000Z,1029.09
2023-05-17T06:57:02.000Z,1029.08
2023-05-17T06:58:02.000Z,1029.12
2023-05-17T06:59:02.000Z,1029.1
2023-05-17T07:00:03.000Z,1029.14
2023-05-17T07:01:03.000Z,1029.14
2023-05-17T07:02:03.000Z,1029.12
2023-05-17T07:03:04.000Z,1029.17
2023-05-17T07:04:04.000Z,1029.2
2023-05-17T07:05:04.000Z,1029.21
2023-05-17T07:06:04.000Z,1029.1
2023-05-17T07:07:05.000Z,1029.23
2023-05-17T07:08:05.000Z,1029.23
2023-05-17T07:09:05.000Z,1029.21
2023-05-17T07:10:05.000Z,1029.28
2023-05-17T07:11:06.000Z,1029.27
2023-05-17T07:12:06.000Z,1029.31
2023-05-17T07:13:06.000Z,1029.3
2023-05-17T07:14:06.000Z,1029.33
2023-05-17T07:15:07.000Z,1029.32
2023-05-17T07:16:07.000Z,1029.36
2023-05-17T07:17:07.000Z,1029.35
2023-05-17T07:18:08.000Z,1029.38
2023-05-17T07:19:08.000Z,1029.34
2023-05-17T07:20:08.000Z,1029.34
2023-05-17T07:21:08.000Z,1029.38
2023-05-17T07:22:09.000Z,1029.36
2023-05-17T07:23:09.000Z,1029.33
2023-05-17T07:24:09.000Z,1029.29
2023-05-17T07:25:10.000Z,1029.25
2023-05-17T07:26:10.000Z,1029.29
2023-05-17T07:27:10.000Z,1029.27
2023-05-17T07:28:10.000Z,1029.25
2023-05-17T07:29:11.000Z,1029.27
2023-05-17T07:30:11.000Z,1029.27
2023-05-17T07:31:11.000Z,1029.31
2023-05-17T07:32:12.000Z,1029.3
2023-05-17T07:33:12.000Z,1029.29
2023-05-17T07:34:12.000Z,1029.3
2023-05-17T07:35:12.000Z,1029.29
2023-05-17T07:36:13.000Z,1029.33
2023-05-17T07:37:13.000Z,1029.38
2023-05-17T07:38:13.000Z,1029.34
2023-05-17T07:39:13.000Z,1029.38
2023-05-17T07:40:14.000Z,1029.37
2023-05-17T07:41:14.000Z,1029.36
2023-05-17T07:42:14.000Z,1029.39
2023-05-17T07:43:14.000Z,1029.45
2023-05-17T07:44:15.000Z,1029.37
2023-05-17T07:45:15.000Z,1029.41
2023-05-17T07:46:15.000Z,1029.4
2023-05-17T07:47:15.000Z,1029.4
2023-05-17T07:48:16.000Z,1029.4
2023-05-17T07:49:16.000Z,1029.43
2023-05-17T07:50:16.000Z,1029.37
2023-05-17T07:51:17.000Z,1029.34
2023-05-17T07:52:17.000Z,1029.33
2023-05-17T07:53:17.000Z,1029.37
2023-05-17T07:54:17.000Z,1029.31
2023-05-17T07:55:18.000Z,1029.38
2023-05-17T07:56:18.000Z,1029.44
2023-05-17T07:57:18.000Z,1029.41
2023-05-17T07:58:18.000Z,1029.47
2023-05-17T07:59:19.000Z,1029.45
2023-05-17T08:00:19.000Z,1029.43
2023-05-17T08:01:19.000Z,1029.45
2023-05-17T08:02:19.000Z,1029.53
2023-05-17T08:03:20.000Z,1029.52
2023-05-17T08:04:20.000Z,1029.53
2023-05-17T08:05:20.000Z,1029.51
2023-05-17T08:06:21.000Z,1029.54
2023-05-17T08:07:21.000Z,1029.49
2023-05-17T08:08:21.000Z,1029.47
2023-05-17T08:09:21.000Z,1029.45
2023-05-17T08:10:22.000Z,1029.45
2023-05-17T08:11:22.000Z,1029.52
2023-05-17T08:12:22.000Z,1029.47
2023-05-17T08:13:23.000Z,1029.45
2023-05-17T08:14:23.000Z,1029.44
2023-05-17T08:15:23.000Z,1029.49
2023-05-17T08:16:23.000Z,1029.47
2023-05-17T08:17:24.000Z,1029.47
2023-05-17T08:18:24.000Z,1029.5
2023-05-17T08:19:24.000Z,1029.54
2023-05-17T08:20:24.000Z,1029.48
2023-05-17T08:21:25.000Z,1029.5
2023-05-17T08:22:25.000Z,1029.48
2023-05-17T08:23:25.000Z,1029.51
2023-05-17T08:24:25.000Z,1029.53
2023-05-17T08:25:26.000Z,1029.57
2023-05-17T08:26:26.000Z,1029.57
2023-05-17T08:27:26.000Z,1029.58
2023-05-17T08:28:27.000Z,1029.59
2023-05-17T08:29:27.000Z,1029.53
2023-05-17T08:30:27.000Z,1029.55
2023-05-17T08:31:27.000Z,1029.57
2023-05-17T08:32:28.000Z,1029.6
2023-05-17T08:33:28.000Z,1029.6
2023-05-17T08:34:28.000Z,1029.61
2023-05-17T08:35:28.000Z,1029.61
2023-05-17T08:36:29.000Z,1029.58
2023-05-17T08:37:29.000Z,1029.53
2023-05-17T08:38:29.000Z,1029.63
2023-05-17T08:39:29.000Z,1029.64
2023-05-17T08:40:30.000Z,1029.68
2023-05-17T08:41:30.000Z,1029.68
2023-05-17T08:42:30.000Z,1029.71
2023-05-17T08:43:31.000Z,1029.72
2023-05-17T08:44:31.000Z,1029.73
2023-05-17T08:45:31.000Z,1029.72
2023-05-17T08:46:31.000Z,1029.67
2023-05-17T08:47:32.000Z,1029.74
2023-05-17T08:48:32.000Z,1029.68
2023-05-17T08:49:32.000Z,1029.66
2023-05-17T08:50:32.000Z,1029.7
2023-05-17T08:51:33.000Z,1029.69
2023-05-17T08:52:33.000Z,1029.72
2023-05-17T08:53:33.000Z,1029.73
2023-05-17T08:54:33.000Z,1029.62
2023-05-17T08:55:34.000Z,1029.63
2023-05-17T08:56:34.000Z,1029.66
2023-05-17T08:57:34.000Z,1029.63
2023-05-17T08:58:34.000Z,1029.7
2023-05-17T08:59:35.000Z,1029.65
2023-05-17T09:00:35.000Z,1029.71
2023-05-17T09:01:35.000Z,1029.59
2023-05-17T09:02:35.000Z,1029.67
2023-05-17T09:03:36.000Z,1029.67
2023-05-17T09:04:36.000Z,1029.65
2023-05-17T09:05:36.000Z,1029.65
2023-05-17T09:06:36.000Z,1029.68
2023-05-17T09:07:37.000Z,1029.67
2023-05-17T09:08:37.000Z,1029.63
2023-05-17T09:09:37.000Z,1029.64
2023-05-17T09:10:37.000Z,1029.64
2023-05-17T09:11:38.000Z,1029.63
2023-05-17T09:12:38.000Z,1029.64
2023-05-17T09:13:38.000Z,1029.57
2023-05-17T09:14:39.000Z,1029.63
2023-05-17T09:15:39.000Z,1029.61
2023-05-17T09:16:39.000Z,1029.58
2023-05-17T09:17:39.000Z,1029.58
2023-05-17T09:18:40.000Z,1029.6
2023-05-17T09:19:40.000Z,1029.6
2023-05-17T09:20:40.000Z,1029.64
2023-05-17T09:21:40.000Z,1029.6
2023-05-17T09:22:41.000Z,1029.62
2023-05-17T09:23:41.000Z,1029.57
2023-05-17T09:24:41.000Z,1029.58
2023-05-17T09:25:42.000Z,1029.57
2023-05-17T09:26:42.000Z,1029.59
2023-05-17T09:27:42.000Z,1029.58
2023-05-17T09:28:43.000Z,1029.58
2023-05-17T09:29:43.000Z,1029.6
2023-05-17T09:30:43.000Z,1029.58
2023-05-17T09:31:43.000Z,1029.6
2023-05-17T09:32:44.000Z,1029.56
2023-05-17T09:33:44.000Z,1029.57
2023-05-17T09:34:44.000Z,1029.63
2023-05-17T09:35:44.000Z,1029.65
2023-05-17T09:36:45.000Z,1029.59
2023-05-17T09:37:45.000Z,1029.58
2023-05-17T09:38:45.000Z,1029.58
2023-05-17T09:39:45.000Z,1029.6
2023-05-17T09:40:46.000Z,1029.63
2023-05-17T09:41:46.000Z,1029.61
2023-05-17T09:42:46.000Z,1029.6
2023-05-17T09:43:46.000Z,1029.55
2023-05-17T09:44:47.000Z,1029.64
2023-05-17T09:45:47.000Z,1029.59
2023-05-17T09:46:47.000Z,1029.65
2023-05-17T09:47:47.000Z,1029.64
2023-05-17T09:48:48.000Z,1029.7
2023-05-17T09:49:48.000Z,1029.63
2023-05-17T09:50:48.000Z,1029.67
2023-05-17T09:51:48.000Z,1029.71
2023-05-17T09:52:49.000Z,1029.69
2023-05-17T09:53:49.000Z,1029.66
2023-05-17T09:54:49.000Z,1029.72
2023-05-17T09:55:50.000Z,1029.68
2023-05-17T09:56:50.000Z,1029.67
2023-05-17T09:57:50.000Z,1029.57
2023-05-17T09:58:50.000Z,1029.59
2023-05-17T09:59:51.000Z,1029.69
2023-05-17T10:00:51.000Z,1029.69
2023-05-17T10:01:51.000Z,1029.75
2023-05-17T10:02:51.000Z,1029.72
2023-05-17T10:03:52.000Z,1029.73
2023-05-17T10:04:52.000Z,1029.78
2023-05-17T10:05:52.000Z,1029.74
2023-05-17T10:06:53.000Z,1029.73
2023-05-17T10:07:53.000Z,1029.65
2023-05-17T10:08:53.000Z,1029.72
2023-05-17T10:09:54.000Z,1029.71
2023-05-17T10:10:54.000Z,1029.72
2023-05-17T10:11:54.000Z,1029.76
2023-05-17T10:12:54.000Z,1029.75
2023-05-17T10:13:55.000Z,1029.75
2023-05-17T10:14:55.000Z,1029.76
2023-05-17T10:15:55.000Z,1029.82
2023-05-17T10:16:55.000Z,1029.83
2023-05-17T10:17:56.000Z,1029.86
2023-05-17T10:18:56.000Z,1029.9
2023-05-17T10:19:56.000Z,1029.9
2023-05-17T10:20:57.000Z,1029.94
2023-05-17T10:21:57.000Z,1029.95
2023-05-17T10:22:57.000Z,1029.88
2023-05-17T10:23:57.000Z,1029.89
2023-05-17T10:24:58.000Z,1029.86
2023-05-17T10:25:58.000Z,1029.78
2023-05-17T10:26:58.000Z,1029.84
2023-05-17T10:27:59.000Z,1029.81
2023-05-17T10:28:59.000Z,1029.89
2023-05-17T10:29:59.000Z,1029.9
2023-05-17T10:30:59.000Z,1029.93
2023-05-17T10:32:00.000Z,1029.9
2023-05-17T10:33:00.000Z,1029.96
2023-05-17T10:34:00.000Z,1029.94
2023-05-17T10:35:01.000Z,1030.0
2023-05-17T10:36:01.000Z,1030.03
2023-05-17T10:37:01.000Z,1030.0
2023-05-17T10:38:02.000Z,1030.04
2023-05-17T10:39:02.000Z,1030.05
2023-05-17T10:40:02.000Z,1030.02
2023-05-17T10:41:02.000Z,1030.05
2023-05-17T10:42:03.000Z,1030.07
2023-05-17T10:43:08.000Z,1030.05
2023-05-17T10:44:08.000Z,1029.99
2023-05-17T10:45:08.000Z,1029.97
2023-05-17T10:46:09.000Z,1030.03
2023-05-17T10:47:09.000Z,1029.99
2023-05-17T10:48:09.000Z,1030.04
2023-05-17T10:49:09.000Z,1030.11
2023-05-17T10:50:10.000Z,1030.14
2023-05-17T10:51:10.000Z,1030.08
2023-05-17T10:52:10.000Z,1030.13
2023-05-17T10:53:11.000Z,1030.23
2023-05-17T10:54:11.000Z,1030.14
2023-05-17T10:55:11.000Z,1030.19
2023-05-17T10:56:11.000Z,1030.18
2023-05-17T10:57:12.000Z,1030.15
2023-05-17T10:58:12.000Z,1030.13
2023-05-17T10:59:12.000Z,1030.15
2023-05-17T11:00:12.000Z,1030.21
2023-05-17T11:01:13.000Z,1030.12
2023-05-17T11:02:13.000Z,1030.07
2023-05-17T11:03:13.000Z,1030.06
2023-05-17T11:04:13.000Z,1030.06
2023-05-17T11:05:14.000Z,1029.97
2023-05-17T11:06:14.000Z,1030.01
2023-05-17T11:07:19.000Z,1029.96
2023-05-17T11:08:19.000Z,1030.01
2023-05-17T11:09:20.000Z,1030.03
2023-05-17T11:10:20.000Z,1030.0
2023-05-17T11:11:20.000Z,1029.97
2023-05-17T11:12:20.000Z,1030.01
2023-05-17T11:13:21.000Z,1030.08
2023-05-17T11:14:21.000Z,1030.05
2023-05-17T11:15:21.000Z,1030.03
2023-05-17T11:16:21.000Z,1030.15
2023-05-17T11:17:22.000Z,1030.11
2023-05-17T11:18:22.000Z,1030.11
2023-05-17T11:19:22.000Z,1030.06
2023-05-17T11:20:23.000Z,1030.1
2023-05-17T11:21:23.000Z,1030.03
2023-05-17T11:22:23.000Z,1030.03
2023-05-17T11:23:23.000Z,1030.1
2023-05-17T11:24:24.000Z,1030.02
2023-05-17T11:25:24.000Z,1030.02
2023-05-17T11:26:24.000Z,1030.02
2023-05-17T11:27:24.000Z,1030.06
2023-05-17T11:28:25.000Z,1029.97
2023-05-17T11:29:25.000Z,1030.06
2023-05-17T11:30:25.000Z,1030.01
2023-05-17T11:31:26.000Z,1029.98
2023-05-17T11:32:26.000Z,1029.9
2023-05-17T11:33:26.000Z,1029.81
2023-05-17T11:34:26.000Z,1029.86
2023-05-17T11:35:27.000Z,1029.88
2023-05-17T11:36:27.000Z,1029.92
2023-05-17T11:37:27.000Z,1029.99
2023-05-17T11:38:28.000Z,1030.03
2023-05-17T11:39:28.000Z,1030.03
2023-05-17T11:40:28.000Z,1030.02
2023-05-17T11:41:28.000Z,1029.98
2023-05-17T11:42:29.000Z,1030.01
2023-05-17T11:43:29.000Z,1029.99
2023-05-17T11:44:29.000Z,1030.0
2023-05-17T11:45:29.000Z,1029.97
2023-05-17T11:46:30.000Z,1029.98
2023-05-17T11:47:30.000Z,1030.0
2023-05-17T11:48:30.000Z,1030.01
2023-05-17T11:49:31.000Z,1030.07
2023-05-17T11:50:31.000Z,1030.01
2023-05-17T11:51:31.000Z,1030.02
2023-05-17T11:52:31.000Z,1030.06
2023-05-17T11:53:32.000Z,1030.05
2023-05-17T11:54:32.000Z,1029.99
2023-05-17T11:55:32.000Z,1030.01
2023-05-17T11:56:32.000Z,1030.04
2023-05-17T11:57:33.000Z,1030.05
2023-05-17T11:58:33.000Z,1030.0
2023-05-17T11:59:33.000Z,1029.99
2023-05-17T12:00:34.000Z,1030.06
2023-05-17T12:01:34.000Z,1030.06
2023-05-17T12:02:34.000Z,1030.04
2023-05-17T12:03:34.000Z,1029.94
2023-05-17T12:04:35.000Z,1030.0
2023-05-17T12:05:35.000Z,1030.0
2023-05-17T12:06:35.000Z,1029.98
2023-05-17T12:07:36.000Z,1029.98
2023-05-17T12:08:36.000Z,1030.0
2023-05-17T12:09:36.000Z,1029.99
2023-05-17T12:10:36.000Z,1029.95